Time;durP1;ratioP1;P1;durP2;ratioP2;P2;SDS_P1;SDS_P2;PMS_P1;PMS_P2;Temp;Humidity;BMP_temperature;BMP_pressure;BME280_temperature;BME280_humidity;BME280_pressure;Samples;Min_cycle;Max_cycle;Signal;HPM_P1;HPM_P2
2021/05/01 00:01:22;;;;;;;2.50;1.30;;;22.70;99.90;;;;;;5089935;28;20453;-79
2021/05/01 00:03:50;;;;;;;2.30;1.23;;;22.10;99.90;;;;;;5089876;28;20365;-79
2021/05/01 00:06:17;;;;;;;2.08;1.27;;;21.80;99.90;;;;;;5089797;28;20377;-79
2021/05/01 00:08:44;;;;;;;2.50;1.30;;;21.40;99.90;;;;;;5089760;28;21019;-78
2021/05/01 00:11:11;;;;;;;2.03;0.98;;;20.90;99.90;;;;;;5089242;28;20763;-79
2021/05/01 00:13:38;;;;;;;3.15;1.20;;;20.70;99.90;;;;;;5089589;28;20361;-79
2021/05/01 00:16:06;;;;;;;1.67;1.00;;;20.30;99.90;;;;;;5089954;28;20850;-78
2021/05/01 00:18:34;;;;;;;2.25;1.30;;;19.80;99.90;;;;;;5089664;28;20376;-78
2021/05/01 00:21:01;;;;;;;3.25;1.00;;;19.60;99.90;;;;;;5089195;28;20380;-78
2021/05/01 00:23:29;;;;;;;2.92;1.20;;;19.20;99.90;;;;;;5089434;28;20426;-78
2021/05/01 00:25:56;;;;;;;3.30;1.27;;;19.10;99.90;;;;;;5089139;28;20388;-79
2021/05/01 00:28:23;;;;;;;2.85;1.00;;;19.10;99.90;;;;;;5089505;28;20455;-79
2021/05/01 00:30:50;;;;;;;3.47;1.50;;;19.00;99.90;;;;;;5087393;28;20401;-79
2021/05/01 00:33:17;;;;;;;6.95;1.50;;;19.00;99.90;;;;;;5089241;28;20383;-79
2021/05/01 00:35:44;;;;;;;2.50;1.20;;;18.90;99.90;;;;;;5088559;28;20814;-79
2021/05/01 00:38:11;;;;;;;3.08;1.48;;;19.00;99.90;;;;;;5088413;28;20435;-79
2021/05/01 00:40:39;;;;;;;2.28;1.60;;;19.20;99.90;;;;;;5088824;28;20387;-78
2021/05/01 00:43:06;;;;;;;2.45;1.30;;;19.30;99.90;;;;;;5074799;28;20433;-78
2021/05/01 00:45:33;;;;;;;3.58;1.67;;;19.40;99.90;;;;;;5069077;28;20386;-78
2021/05/01 00:47:59;;;;;;;5.10;1.40;;;19.40;99.90;;;;;;5078876;28;20389;-79
2021/05/01 00:50:26;;;;;;;2.35;1.30;;;19.30;99.90;;;;;;5072719;28;20801;-79
2021/05/01 00:52:53;;;;;;;3.05;1.50;;;19.30;99.90;;;;;;5085859;28;20454;-78
2021/05/01 00:55:21;;;;;;;3.00;1.60;;;19.20;99.90;;;;;;5088316;28;20372;-79
2021/05/01 00:57:47;;;;;;;3.67;1.20;;;19.20;99.90;;;;;;5089095;28;20961;-79
2021/05/01 01:03:20;;;;;;;4.85;1.30;;;19.50;99.90;;;;;;5041824;28;20380;-79
2021/05/01 01:05:47;;;;;;;3.28;1.05;;;19.70;99.90;;;;;;5026543;28;20472;-79
2021/05/01 01:08:14;;;;;;;3.85;1.42;;;19.80;99.90;;;;;;5054123;28;20437;-79
2021/05/01 01:10:42;;;;;;;4.63;1.77;;;19.80;99.90;;;;;;5088848;28;20449;-79
2021/05/01 01:13:09;;;;;;;5.78;2.70;;;19.80;99.90;;;;;;5090157;28;20378;-80
2021/05/01 01:15:36;;;;;;;3.63;2.03;;;19.80;99.90;;;;;;5107202;28;20440;-78
2021/05/01 01:18:03;;;;;;;1.95;1.20;;;19.90;99.90;;;;;;5109509;28;20421;-79
2021/05/01 01:20:30;;;;;;;2.08;1.20;;;20.00;99.90;;;;;;5089871;28;20484;-78
2021/05/01 01:22:57;;;;;;;2.13;1.38;;;20.00;99.90;;;;;;5088844;28;20433;-78
2021/05/01 01:25:24;;;;;;;4.55;1.40;;;19.80;99.90;;;;;;5087269;28;20524;-79
2021/05/01 01:27:51;;;;;;;2.67;1.65;;;19.70;99.90;;;;;;5087523;28;20755;-78
2021/05/01 01:30:25;;;;;;;3.42;1.20;;;19.70;99.90;;;;;;5087816;28;20400;-79
2021/05/01 01:32:52;;;;;;;4.32;1.60;;;19.60;99.90;;;;;;5085098;28;20926;-79
2021/05/01 01:35:20;;;;;;;3.50;1.35;;;19.60;99.90;;;;;;5088255;28;20459;-78
2021/05/01 01:37:48;;;;;;;4.35;1.77;;;19.70;99.90;;;;;;5088478;28;20372;-77
2021/05/01 01:40:17;;;;;;;3.55;1.70;;;19.80;99.90;;;;;;5088372;28;20387;-78
2021/05/01 01:42:44;;;;;;;2.95;1.67;;;19.90;99.90;;;;;;5079064;28;20402;-78
2021/05/01 01:45:14;;;;;;;3.67;1.60;;;20.00;99.90;;;;;;5074140;28;20805;-78
2021/05/01 01:47:41;;;;;;;2.85;1.70;;;20.00;99.90;;;;;;5084008;28;20476;-79
2021/05/01 01:50:12;;;;;;;4.10;1.95;;;19.90;99.90;;;;;;5078175;28;20404;-81
2021/05/01 01:52:40;;;;;;;3.17;2.30;;;19.90;99.90;;;;;;5088504;28;20384;-78
2021/05/01 01:55:09;;;;;;;3.03;2.20;;;19.80;99.90;;;;;;5082976;28;20428;-79
2021/05/01 01:57:36;;;;;;;4.40;2.08;;;19.80;99.90;;;;;;5078519;28;20391;-79
2021/05/01 02:00:09;;;;;;;3.95;2.45;;;19.80;99.90;;;;;;5083864;28;20387;-79
2021/05/01 02:02:36;;;;;;;4.97;2.65;;;19.80;99.90;;;;;;5083845;28;20397;-79
2021/05/01 02:05:04;;;;;;;4.73;2.10;;;19.90;99.90;;;;;;5087820;28;20372;-79
2021/05/01 02:07:31;;;;;;;3.58;2.03;;;19.80;99.90;;;;;;5087657;28;20942;-79
2021/05/01 02:09:58;;;;;;;5.60;2.00;;;19.90;99.90;;;;;;5081233;28;20540;-78
2021/05/01 02:12:25;;;;;;;3.27;1.83;;;19.90;99.90;;;;;;5082258;28;20396;-79
2021/05/01 02:14:53;;;;;;;4.30;1.80;;;19.90;99.90;;;;;;5083644;28;20419;-79
2021/05/01 02:17:23;;;;;;;3.30;1.65;;;20.00;99.90;;;;;;5073981;28;20901;-79
2021/05/01 02:19:50;;;;;;;3.63;1.98;;;20.10;99.90;;;;;;5088296;28;20437;-78
2021/05/01 02:22:17;;;;;;;2.00;1.20;;;20.10;99.90;;;;;;5091694;28;20395;-78
2021/05/01 02:24:44;;;;;;;4.32;1.00;;;20.20;99.90;;;;;;5091628;28;20385;-79
2021/05/01 02:27:11;;;;;;;2.47;0.77;;;20.10;99.90;;;;;;5091442;28;20415;-79
2021/05/01 02:29:38;;;;;;;2.83;1.00;;;20.00;99.90;;;;;;5091229;28;20392;-79
2021/05/01 02:32:05;;;;;;;2.60;1.50;;;20.10;99.90;;;;;;5090910;28;20443;-79
2021/05/01 02:34:32;;;;;;;3.03;1.42;;;20.20;99.90;;;;;;5091695;28;20491;-79
2021/05/01 02:36:59;;;;;;;3.67;1.52;;;20.30;99.90;;;;;;5088893;28;20428;-78
2021/05/01 02:39:26;;;;;;;4.72;1.38;;;20.30;99.90;;;;;;5080022;28;20390;-78
2021/05/01 02:41:53;;;;;;;3.05;1.17;;;20.40;99.90;;;;;;5074829;28;20391;-79
2021/05/01 02:44:20;;;;;;;5.50;1.50;;;20.40;99.90;;;;;;5091103;28;20444;-79
2021/05/01 02:46:46;;;;;;;3.72;1.48;;;20.30;99.90;;;;;;5091401;28;20392;-79
2021/05/01 02:49:13;;;;;;;5.10;1.60;;;20.40;99.90;;;;;;5091652;28;20399;-78
2021/05/01 02:51:40;;;;;;;4.32;1.40;;;20.50;99.90;;;;;;5090773;28;20481;-79
2021/05/01 02:54:10;;;;;;;2.20;1.20;;;20.60;99.90;;;;;;5087024;28;20557;-78
2021/05/01 02:56:37;;;;;;;2.78;1.20;;;20.70;99.90;;;;;;5078824;28;20395;-79
2021/05/01 02:59:04;;;;;;;6.28;1.50;;;20.80;99.90;;;;;;5086449;28;20384;-79
2021/05/01 03:01:31;;;;;;;3.40;1.20;;;20.80;99.90;;;;;;5090413;28;20388;-79
2021/05/01 03:03:58;;;;;;;3.05;1.02;;;20.90;99.90;;;;;;5090098;28;20419;-79
2021/05/01 03:06:25;;;;;;;2.17;1.05;;;20.90;99.90;;;;;;5087715;28;20726;-79
2021/05/01 03:08:52;;;;;;;4.65;1.10;;;20.80;99.90;;;;;;5092904;28;20397;-80
2021/05/01 03:11:19;;;;;;;2.72;1.10;;;20.60;99.90;;;;;;5083674;28;20447;-79
2021/05/01 03:13:46;;;;;;;1.92;1.00;;;20.50;99.90;;;;;;5094112;28;20420;-79
2021/05/01 03:16:13;;;;;;;1.88;0.82;;;20.50;99.90;;;;;;5095937;28;20375;-80
2021/05/01 03:18:39;;;;;;;2.35;0.85;;;20.60;99.90;;;;;;5101190;28;20885;-80
2021/05/01 03:21:06;;;;;;;3.17;0.98;;;20.70;99.90;;;;;;5087505;28;20488;-81
2021/05/01 03:23:34;;;;;;;4.03;0.95;;;20.80;99.90;;;;;;5086765;28;20392;-80
2021/05/01 03:26:01;;;;;;;2.35;0.90;;;21.00;99.90;;;;;;5085290;28;20481;-79
2021/05/01 03:28:27;;;;;;;2.17;1.00;;;21.10;99.90;;;;;;5085731;28;20728;-80
2021/05/01 03:30:54;;;;;;;2.40;0.80;;;21.20;99.90;;;;;;5089605;28;20973;-80
2021/05/01 03:33:22;;;;;;;3.55;0.90;;;21.20;99.90;;;;;;5088973;28;20859;-79
2021/05/01 03:35:49;;;;;;;1.60;0.88;;;21.20;99.90;;;;;;5086106;28;20942;-80
2021/05/01 03:38:16;;;;;;;2.55;0.93;;;21.00;99.90;;;;;;5090454;28;20364;-80
2021/05/01 03:40:43;;;;;;;3.25;0.90;;;20.90;99.90;;;;;;5088356;28;20878;-79
2021/05/01 03:43:10;;;;;;;2.93;0.80;;;21.00;99.90;;;;;;5089298;28;20871;-79
2021/05/01 03:45:37;;;;;;;1.90;0.80;;;21.00;99.90;;;;;;5089214;28;20388;-79
2021/05/01 03:48:05;;;;;;;3.77;0.97;;;21.00;99.90;;;;;;5090716;28;20375;-80
2021/05/01 03:50:32;;;;;;;3.03;0.90;;;21.00;99.90;;;;;;5087480;28;20429;-81
2021/05/01 03:52:59;;;;;;;4.35;0.88;;;21.10;99.90;;;;;;5089523;28;20396;-80
2021/05/01 03:55:27;;;;;;;1.58;0.70;;;21.10;99.90;;;;;;5088589;28;20384;-80
2021/05/01 03:57:54;;;;;;;3.33;0.80;;;21.00;99.90;;;;;;5090042;28;20600;-80
2021/05/01 04:00:22;;;;;;;4.07;1.00;;;20.80;99.90;;;;;;5084646;28;20736;-79
2021/05/01 04:02:50;;;;;;;4.00;1.03;;;20.70;99.90;;;;;;5088030;28;20380;-79
2021/05/01 04:05:17;;;;;;;3.58;0.90;;;20.70;99.90;;;;;;5083327;28;20784;-79
2021/05/01 04:07:45;;;;;;;3.42;0.90;;;20.70;99.90;;;;;;5086988;28;20392;-81
2021/05/01 04:10:13;;;;;;;3.00;0.80;;;20.60;99.90;;;;;;5089653;28;20380;-80
2021/05/01 04:12:40;;;;;;;4.53;1.03;;;20.50;99.90;;;;;;5089219;28;20469;-80
2021/05/01 04:15:07;;;;;;;3.50;0.90;;;20.40;99.90;;;;;;5093770;28;20438;-80
2021/05/01 04:17:34;;;;;;;3.17;1.13;;;20.40;99.90;;;;;;5089993;28;20601;-81
2021/05/01 04:20:01;;;;;;;3.95;0.95;;;20.50;99.90;;;;;;5087002;28;21443;-80
2021/05/01 04:22:28;;;;;;;3.57;1.00;;;20.40;99.90;;;;;;5091048;28;20890;-80
2021/05/01 04:24:55;;;;;;;3.63;0.93;;;20.50;99.90;;;;;;5087027;28;20391;-80
2021/05/01 04:27:22;;;;;;;3.80;1.10;;;20.60;99.90;;;;;;5087167;28;20396;-80
2021/05/01 04:29:49;;;;;;;5.15;1.00;;;20.60;99.90;;;;;;5082310;28;20386;-80
2021/05/01 04:32:16;;;;;;;3.40;1.20;;;20.60;99.90;;;;;;5081319;28;20443;-80
2021/05/01 04:34:43;;;;;;;5.82;1.10;;;20.60;99.90;;;;;;5088495;28;20407;-81
2021/05/01 04:37:10;;;;;;;4.38;1.00;;;20.80;99.90;;;;;;5088117;28;20458;-80
2021/05/01 04:39:37;;;;;;;4.00;0.98;;;20.80;99.90;;;;;;5087969;28;20392;-80
2021/05/01 04:42:07;;;;;;;3.38;0.93;;;20.80;99.90;;;;;;5079585;28;20764;-80
2021/05/01 04:44:34;;;;;;;5.40;0.88;;;20.70;99.90;;;;;;5086798;28;20540;-81
2021/05/01 04:47:01;;;;;;;3.35;0.98;;;20.50;99.90;;;;;;5069833;28;20394;-81
2021/05/01 04:49:28;;;;;;;3.95;1.00;;;20.40;99.90;;;;;;5082711;28;20392;-79
2021/05/01 04:51:55;;;;;;;2.70;0.90;;;20.30;99.90;;;;;;5082814;28;20853;-80
2021/05/01 04:54:22;;;;;;;5.60;0.80;;;20.10;99.90;;;;;;5086997;28;20437;-79
2021/05/01 04:56:49;;;;;;;4.97;1.00;;;20.00;99.90;;;;;;5088911;28;20368;-79
2021/05/01 04:59:16;;;;;;;6.18;1.00;;;19.90;99.90;;;;;;5088870;28;20900;-79
2021/05/01 05:01:43;;;;;;;4.88;0.80;;;19.90;99.90;;;;;;5088654;28;20387;-80
2021/05/01 05:04:10;;;;;;;5.70;1.00;;;19.80;99.90;;;;;;5088846;28;20380;-79
2021/05/01 05:06:37;;;;;;;3.58;0.85;;;19.80;99.90;;;;;;5087228;28;20388;-79
2021/05/01 05:09:04;;;;;;;2.23;0.80;;;19.80;99.90;;;;;;5097758;28;20480;-79
2021/05/01 05:11:31;;;;;;;4.43;1.17;;;19.70;99.90;;;;;;5088826;28;20946;-80
2021/05/01 05:13:59;;;;;;;5.00;1.00;;;19.70;99.90;;;;;;5088535;28;20388;-80
2021/05/01 05:16:26;;;;;;;3.92;1.10;;;19.60;99.90;;;;;;5088623;28;20388;-81
2021/05/01 05:18:56;;;;;;;4.43;0.93;;;19.60;99.90;;;;;;5088681;28;20376;-81
2021/05/01 05:21:23;;;;;;;6.25;1.52;;;19.60;99.90;;;;;;5079664;28;20918;-80
2021/05/01 05:23:51;;;;;;;6.05;1.20;;;19.60;99.90;;;;;;5087540;28;20479;-80
2021/05/01 05:26:18;;;;;;;2.75;1.10;;;19.50;99.90;;;;;;5083667;28;20388;-80
2021/05/01 05:28:45;;;;;;;4.55;0.88;;;19.60;99.90;;;;;;5087176;28;20881;-80
2021/05/01 05:31:12;;;;;;;4.07;1.13;;;19.70;99.90;;;;;;5088286;28;20547;-79
2021/05/01 05:33:39;;;;;;;5.75;2.35;;;19.80;99.90;;;;;;5088553;28;20372;-80
2021/05/01 05:36:06;;;;;;;4.72;1.48;;;19.90;99.90;;;;;;5086905;28;20384;-80
2021/05/01 05:38:33;;;;;;;4.50;1.30;;;20.00;99.90;;;;;;5087950;28;20849;-80
2021/05/01 05:41:00;;;;;;;5.70;1.30;;;20.00;99.90;;;;;;5088293;28;20453;-80
2021/05/01 05:43:29;;;;;;;5.13;1.20;;;20.00;99.90;;;;;;5085781;28;20820;-80
2021/05/01 05:45:56;;;;;;;3.25;0.90;;;20.10;99.90;;;;;;5080092;28;20475;-81
2021/05/01 05:48:23;;;;;;;6.20;0.95;;;20.10;99.90;;;;;;5090280;28;20498;-80
2021/05/01 05:50:50;;;;;;;6.32;1.00;;;20.00;99.90;;;;;;5091775;28;20886;-81
2021/05/01 05:53:17;;;;;;;4.03;1.02;;;19.90;99.90;;;;;;5077747;28;20385;-81
2021/05/01 05:55:45;;;;;;;6.68;1.05;;;19.90;99.90;;;;;;5092423;28;20396;-80
2021/05/01 05:58:12;;;;;;;2.23;0.90;;;19.80;99.90;;;;;;5091278;28;20463;-80
2021/05/01 06:00:39;;;;;;;4.68;0.90;;;19.80;99.90;;;;;;5091900;28;20768;-81
2021/05/01 06:03:09;;;;;;;6.10;1.17;;;19.80;99.90;;;;;;5090390;28;20430;-80
2021/05/01 06:05:38;;;;;;;4.00;0.95;;;19.70;99.90;;;;;;5076752;28;20387;-80
2021/05/01 06:08:06;;;;;;;5.05;0.70;;;19.60;99.90;;;;;;5090724;28;20375;-81
2021/05/01 06:10:34;;;;;;;4.22;0.95;;;19.50;99.90;;;;;;5091654;28;20477;-80
2021/05/01 06:13:04;;;;;;;4.30;0.95;;;19.50;99.90;;;;;;5084843;28;20880;-80
2021/05/01 06:15:32;;;;;;;7.10;0.90;;;19.40;99.90;;;;;;5091724;28;20383;-80
2021/05/01 06:18:02;;;;;;;4.45;1.05;;;19.30;99.90;;;;;;5092247;28;20377;-82
2021/05/01 06:20:31;;;;;;;6.28;1.15;;;19.20;99.90;;;;;;5091270;28;20391;-81
2021/05/01 06:23:01;;;;;;;3.42;0.80;;;19.10;99.90;;;;;;5089487;28;20383;-80
2021/05/01 06:25:29;;;;;;;6.70;1.37;;;19.10;99.90;;;;;;5087190;28;20434;-80
2021/05/01 06:27:56;;;;;;;7.00;1.05;;;19.10;99.90;;;;;;5088602;28;20392;-80
2021/05/01 06:30:24;;;;;;;7.10;1.05;;;19.00;99.90;;;;;;5089893;28;20380;-80
2021/05/01 06:32:52;;;;;;;3.70;0.77;;;19.10;99.90;;;;;;5089963;28;21085;-80
2021/05/01 06:35:20;;;;;;;5.27;1.07;;;19.20;99.90;;;;;;5091418;28;20365;-81
2021/05/01 06:37:51;;;;;;;11.13;1.42;;;19.20;99.90;;;;;;5090682;28;20423;-81
2021/05/01 06:40:21;;;;;;;5.53;1.00;;;19.20;99.90;;;;;;5089688;28;20384;-79
2021/05/01 06:43:14;;;;;;;5.18;1.15;;;19.20;99.90;;;;;;5091487;28;20381;-80
2021/05/01 06:45:44;;;;;;;8.00;1.10;;;19.10;99.90;;;;;;5070744;28;20388;-80
2021/05/01 06:48:21;;;;;;;8.13;0.90;;;19.00;99.90;;;;;;5085343;28;20402;-81
2021/05/01 06:50:49;;;;;;;5.30;0.88;;;19.00;99.90;;;;;;5090594;28;20416;-80
2021/05/01 06:53:29;;;;;;;5.32;0.70;;;18.90;99.90;;;;;;5091234;28;20377;-80
2021/05/01 06:56:01;;;;;;;6.28;1.30;;;18.80;99.90;;;;;;5090295;28;20446;-79
2021/05/01 06:58:30;;;;;;;4.25;1.00;;;18.70;99.90;;;;;;5091261;28;20824;-79
2021/05/01 07:01:05;;;;;;;6.03;1.13;;;18.70;99.90;;;;;;5089686;28;20380;-78
2021/05/01 07:03:49;;;;;;;4.43;1.07;;;18.60;99.90;;;;;;5090969;28;20442;-79
2021/05/01 07:06:18;;;;;;;7.70;1.02;;;18.50;99.90;;;;;;5090999;28;20462;-79
2021/05/01 07:08:45;;;;;;;3.45;0.90;;;18.50;99.90;;;;;;5090756;28;20444;-80
2021/05/01 07:11:13;;;;;;;5.68;0.98;;;18.40;99.90;;;;;;5090377;28;20404;-78
2021/05/01 07:13:42;;;;;;;5.50;0.85;;;18.30;99.90;;;;;;5091095;28;20430;-79
2021/05/01 07:16:12;;;;;;;5.68;0.90;;;18.20;99.90;;;;;;5090604;28;20377;-79
2021/05/01 07:18:44;;;;;;;3.17;1.02;;;18.20;99.90;;;;;;5087326;28;20376;-80
2021/05/01 07:21:11;;;;;;;3.30;1.05;;;18.10;99.90;;;;;;5090402;28;20384;-80
2021/05/01 07:23:38;;;;;;;2.88;1.10;;;18.10;99.90;;;;;;5085352;28;20471;-80
2021/05/01 07:26:07;;;;;;;6.68;1.17;;;18.00;99.90;;;;;;5083134;28;20927;-80
2021/05/01 07:28:40;;;;;;;6.47;1.10;;;18.00;99.90;;;;;;5080481;28;20392;-80
2021/05/01 07:31:12;;;;;;;6.67;1.37;;;17.90;99.90;;;;;;5087104;28;20423;-81
2021/05/01 07:33:53;;;;;;;7.65;1.20;;;17.90;99.90;;;;;;5079812;28;20383;-80
2021/05/01 07:36:33;;;;;;;6.95;1.10;;;17.80;99.90;;;;;;5084645;28;20375;-80
2021/05/01 07:39:03;;;;;;;7.07;1.45;;;17.70;99.90;;;;;;5071448;28;20382;-81
2021/05/01 07:41:32;;;;;;;7.35;1.55;;;17.70;99.90;;;;;;5090034;28;20357;-80
2021/05/01 07:44:00;;;;;;;7.53;1.35;;;17.60;99.90;;;;;;5083860;28;20394;-80
2021/05/01 07:46:29;;;;;;;7.43;1.30;;;17.60;99.90;;;;;;5074768;28;20466;-80
2021/05/01 07:48:56;;;;;;;7.13;1.48;;;17.60;99.90;;;;;;5090446;28;20392;-80
2021/05/01 07:51:23;;;;;;;8.63;1.65;;;17.50;99.90;;;;;;5075344;28;20923;-81
2021/05/01 07:53:50;;;;;;;7.43;1.48;;;17.50;99.90;;;;;;5069187;28;20382;-80
2021/05/01 07:56:18;;;;;;;6.57;1.52;;;17.40;99.90;;;;;;5074874;28;20475;-79
2021/05/01 07:58:45;;;;;;;5.67;1.23;;;17.40;99.90;;;;;;5082502;28;20747;-80
2021/05/01 08:01:12;;;;;;;4.65;1.55;;;17.40;99.90;;;;;;5088572;28;20376;-79
2021/05/01 08:03:39;;;;;;;8.20;1.52;;;17.40;99.90;;;;;;5088507;28;20399;-80
2021/05/01 08:06:06;;;;;;;6.70;1.42;;;17.40;99.90;;;;;;5078568;28;20795;-81
2021/05/01 08:08:34;;;;;;;6.20;1.20;;;17.40;99.90;;;;;;5085042;28;20403;-80
2021/05/01 08:11:01;;;;;;;8.18;1.13;;;17.40;99.90;;;;;;5089572;28;20466;-78
2021/05/01 08:13:29;;;;;;;7.90;1.40;;;17.40;99.90;;;;;;5089570;28;20479;-79
2021/05/01 08:15:56;;;;;;;6.15;1.20;;;17.40;99.90;;;;;;5074316;28;20421;-80
2021/05/01 08:18:23;;;;;;;7.25;1.50;;;17.40;99.90;;;;;;5079071;28;20373;-81
2021/05/01 08:20:51;;;;;;;5.55;1.20;;;17.40;99.90;;;;;;5087493;28;20743;-79
2021/05/01 08:23:18;;;;;;;6.05;0.93;;;17.40;99.90;;;;;;5087466;28;20905;-80
2021/05/01 08:25:45;;;;;;;6.07;1.33;;;17.40;99.90;;;;;;5082742;28;20385;-79
2021/05/01 08:28:12;;;;;;;5.15;1.10;;;17.40;99.90;;;;;;5082546;28;20388;-80
2021/05/01 08:30:39;;;;;;;6.78;1.30;;;17.50;99.90;;;;;;5085802;28;20396;-80
2021/05/01 08:33:06;;;;;;;7.53;1.40;;;17.40;99.90;;;;;;5075846;28;20408;-80
2021/05/01 08:35:33;;;;;;;6.25;1.13;;;17.40;99.90;;;;;;5075217;28;20384;-80
2021/05/01 08:38:00;;;;;;;5.88;1.45;;;17.30;99.90;;;;;;5079398;28;20477;-79
2021/05/01 08:40:27;;;;;;;4.97;1.05;;;17.40;99.90;;;;;;5084661;28;20384;-79
2021/05/01 08:42:54;;;;;;;8.60;1.55;;;17.40;99.90;;;;;;5077418;28;21241;-80
2021/05/01 08:45:24;;;;;;;8.07;1.77;;;17.30;99.90;;;;;;5083273;28;20769;-79
2021/05/01 08:47:51;;;;;;;11.52;1.98;;;17.30;99.90;;;;;;5086903;28;20842;-80
2021/05/01 08:50:30;;;;;;;7.10;1.65;;;17.30;99.90;;;;;;5078603;28;21462;-80
2021/05/01 08:53:01;;;;;;;10.43;1.70;;;17.30;99.90;;;;;;5087682;28;20479;-80
2021/05/01 08:55:36;;;;;;;7.05;1.63;;;17.40;99.90;;;;;;5087145;28;20505;-80
2021/05/01 08:58:06;;;;;;;5.50;1.85;;;17.40;99.90;;;;;;5079433;28;20390;-80
2021/05/01 09:00:34;;;;;;;5.93;1.08;;;17.40;99.90;;;;;;5077614;28;20385;-79
2021/05/01 09:03:04;;;;;;;7.88;1.48;;;17.40;99.90;;;;;;5081835;28;20388;-80
2021/05/01 09:05:32;;;;;;;7.37;1.43;;;17.30;99.90;;;;;;5085478;28;20408;-80
2021/05/01 09:08:00;;;;;;;7.75;1.52;;;17.40;99.90;;;;;;5078601;28;20857;-80
2021/05/01 09:10:36;;;;;;;6.32;1.35;;;17.30;99.90;;;;;;5082336;28;20890;-81
2021/05/01 09:13:15;;;;;;;7.85;1.25;;;17.40;99.90;;;;;;5088672;28;20380;-80
2021/05/01 09:16:01;;;;;;;7.70;1.37;;;17.30;99.90;;;;;;5083346;28;20716;-80
2021/05/01 09:18:29;;;;;;;6.57;1.35;;;17.30;99.90;;;;;;5087065;28;20388;-79
2021/05/01 09:21:19;;;;;;;6.40;1.40;;;17.30;99.90;;;;;;5077276;28;20947;-79
2021/05/01 09:23:47;;;;;;;8.00;1.30;;;17.30;99.90;;;;;;5091006;28;20373;-79
2021/05/01 09:26:18;;;;;;;7.28;1.17;;;17.20;99.90;;;;;;5092760;28;20466;-80
2021/05/01 09:28:52;;;;;;;6.53;1.25;;;17.20;99.90;;;;;;5090453;28;20396;-80
2021/05/01 09:31:21;;;;;;;7.03;1.27;;;17.30;99.90;;;;;;5083785;28;20429;-80
2021/05/01 09:33:52;;;;;;;9.05;1.90;;;17.30;99.90;;;;;;5078901;28;20388;-81
2021/05/01 09:36:21;;;;;;;8.10;1.90;;;17.20;99.90;;;;;;5085164;28;20439;-81
2021/05/01 09:38:51;;;;;;;9.38;1.52;;;17.20;99.90;;;;;;5089641;28;20376;-80
2021/05/01 09:41:23;;;;;;;5.80;1.40;;;17.20;99.90;;;;;;5089215;28;20384;-80
2021/05/01 09:44:06;;;;;;;9.13;1.55;;;17.20;99.90;;;;;;5090849;28;20380;-80
2021/05/01 09:46:39;;;;;;;10.17;1.60;;;17.20;99.90;;;;;;5090792;28;20375;-81
2021/05/01 09:49:18;;;;;;;9.07;1.77;;;17.20;99.90;;;;;;5087221;28;20392;-81
2021/05/01 09:51:50;;;;;;;8.40;1.80;;;17.20;99.90;;;;;;5092339;28;20400;-81
2021/05/01 09:54:19;;;;;;;12.70;3.07;;;17.20;99.90;;;;;;5089443;28;20469;-81
2021/05/01 09:56:47;;;;;;;8.68;1.98;;;17.10;99.90;;;;;;5081752;28;20392;-80
2021/05/01 09:59:15;;;;;;;8.50;1.80;;;17.10;99.90;;;;;;5088921;28;20918;-81
2021/05/01 10:01:43;;;;;;;8.15;1.60;;;17.10;99.90;;;;;;5081615;28;20388;-81
2021/05/01 10:04:20;;;;;;;11.68;2.35;;;17.10;99.90;;;;;;5089910;28;20385;-81
2021/05/01 10:06:54;;;;;;;11.90;2.15;;;17.10;99.90;;;;;;5076822;28;20380;-81
2021/05/01 10:09:26;;;;;;;11.18;2.20;;;17.10;99.90;;;;;;5093637;28;20405;-81
2021/05/01 10:12:13;;;;;;;14.15;2.17;;;17.00;99.90;;;;;;5072017;28;20467;-82
2021/05/01 10:14:47;;;;;;;10.23;2.22;;;17.00;99.90;;;;;;5074086;28;20388;-80
2021/05/01 10:17:17;;;;;;;13.45;2.72;;;16.90;99.90;;;;;;5083350;28;20755;-80
2021/05/01 10:19:48;;;;;;;9.75;2.60;;;16.90;99.90;;;;;;5088824;28;20398;-81
2021/05/01 10:22:37;;;;;;;16.23;2.60;;;16.90;99.90;;;;;;5088056;28;20956;-80
2021/05/01 10:25:10;;;;;;;16.52;3.30;;;16.90;99.90;;;;;;5085815;28;20407;-79
2021/05/01 10:30:42;;;;;;;14.18;3.28;;;16.80;99.90;;;;;;5076142;28;20543;-79
2021/05/01 10:33:32;;;;;;;12.00;3.45;;;16.80;99.90;;;;;;5087745;28;20473;-81
2021/05/01 10:35:59;;;;;;;10.95;3.50;;;16.80;99.90;;;;;;5086458;28;20406;-79
2021/05/01 10:38:26;;;;;;;15.67;4.57;;;16.80;99.90;;;;;;5068252;28;20382;-79
2021/05/01 10:40:55;;;;;;;10.73;4.13;;;16.70;99.90;;;;;;5080774;28;20395;-79
2021/05/01 10:43:24;;;;;;;10.05;4.15;;;16.70;99.90;;;;;;5085119;28;20450;-80
2021/05/01 10:46:06;;;;;;;12.70;2.80;;;16.60;99.90;;;;;;5071182;28;20432;-79
2021/05/01 10:48:34;;;;;;;10.93;2.70;;;16.60;99.90;;;;;;5068285;28;20434;-79
2021/05/01 10:51:08;;;;;;;10.68;3.42;;;16.60;99.90;;;;;;5081742;28;20902;-79
2021/05/01 10:53:36;;;;;;;15.63;3.10;;;16.60;99.90;;;;;;5071248;28;20397;-80
2021/05/01 10:56:08;;;;;;;12.15;3.75;;;16.60;99.90;;;;;;5089744;28;20517;-79
2021/05/01 10:58:45;;;;;;;16.98;5.03;;;16.60;99.90;;;;;;5092058;28;20448;-80
2021/05/01 11:01:36;;;;;;;11.80;4.20;;;16.50;99.90;;;;;;5087423;28;20395;-80
2021/05/01 11:04:05;;;;;;;12.05;4.55;;;16.50;99.90;;;;;;5083078;28;20401;-80
2021/05/01 11:06:48;;;;;;;13.00;4.18;;;16.40;99.90;;;;;;5067869;28;20436;-80
2021/05/01 11:09:39;;;;;;;14.80;4.22;;;16.30;99.90;;;;;;5070636;28;20421;-80
2021/05/01 11:12:09;;;;;;;19.27;4.13;;;16.30;99.90;;;;;;5087021;28;20404;-80
2021/05/01 11:15:05;;;;;;;13.45;3.67;;;16.30;99.90;;;;;;5086184;28;20380;-80
2021/05/01 11:17:32;;;;;;;12.90;3.95;;;16.20;99.90;;;;;;5076049;28;20391;-81
2021/05/01 11:20:12;;;;;;;11.40;4.03;;;16.30;99.90;;;;;;5079687;28;20516;-80
2021/05/01 11:22:44;;;;;;;12.27;4.87;;;16.30;99.90;;;;;;5081984;28;20628;-80
2021/05/01 11:25:16;;;;;;;11.07;3.80;;;16.30;99.90;;;;;;5084288;28;20391;-80
2021/05/01 11:27:46;;;;;;;13.43;3.55;;;16.20;99.90;;;;;;5076688;28;20396;-79
2021/05/01 11:30:15;;;;;;;11.30;3.97;;;16.20;99.90;;;;;;5077205;28;20396;-80
2021/05/01 11:32:42;;;;;;;15.85;3.45;;;16.20;99.90;;;;;;5082175;28;20423;-81
2021/05/01 11:35:12;;;;;;;10.05;4.47;;;16.20;99.90;;;;;;5082991;28;20396;-80
2021/05/01 11:37:42;;;;;;;15.90;4.88;;;16.20;99.90;;;;;;5084299;28;21437;-81
2021/05/01 11:40:12;;;;;;;13.13;4.80;;;16.20;99.90;;;;;;5083718;28;20490;-81
2021/05/01 11:42:41;;;;;;;10.77;4.30;;;16.20;99.90;;;;;;5078385;28;20395;-80
2021/05/01 11:45:37;;;;;;;13.57;4.95;;;16.20;99.90;;;;;;5084488;28;20385;-80
2021/05/01 11:48:08;;;;;;;13.52;5.22;;;16.20;99.90;;;;;;5071319;28;20484;-80
2021/05/01 11:50:36;;;;;;;12.43;5.82;;;16.20;99.90;;;;;;5070691;28;20485;-80
2021/05/01 11:53:21;;;;;;;11.32;4.90;;;16.20;99.90;;;;;;5076132;28;20962;-80
2021/05/01 11:56:17;;;;;;;14.32;7.05;;;16.10;99.90;;;;;;5071845;28;20760;-80
2021/05/01 11:58:44;;;;;;;12.43;7.25;;;16.10;99.90;;;;;;5082979;28;20702;-80
2021/05/01 12:01:17;;;;;;;12.85;6.50;;;16.10;99.90;;;;;;5080106;28;20979;-80
2021/05/01 12:03:57;;;;;;;12.45;5.03;;;16.10;99.90;;;;;;5080253;28;20384;-81
2021/05/01 12:06:37;;;;;;;12.13;4.90;;;16.10;99.90;;;;;;5082274;28;20425;-81
2021/05/01 12:09:13;;;;;;;17.58;7.43;;;16.00;99.90;;;;;;5083956;28;20403;-80
2021/05/01 12:11:44;;;;;;;13.82;5.40;;;16.00;99.90;;;;;;5087038;28;20400;-80
2021/05/01 12:14:13;;;;;;;16.60;7.88;;;16.00;99.90;;;;;;5084081;28;20419;-80
2021/05/01 12:16:42;;;;;;;15.77;8.27;;;16.00;99.90;;;;;;5083471;28;20842;-81
2021/05/01 12:19:18;;;;;;;12.80;5.95;;;16.00;99.90;;;;;;5087784;28;20461;-80
2021/05/01 12:21:45;;;;;;;12.63;5.53;;;16.00;99.90;;;;;;5082899;28;20401;-80
2021/05/01 12:24:24;;;;;;;16.48;6.38;;;16.00;99.90;;;;;;5088164;28;20396;-80
2021/05/01 12:26:51;;;;;;;14.10;6.40;;;16.00;99.90;;;;;;5084742;28;20384;-80
2021/05/01 12:29:19;;;;;;;9.27;5.38;;;15.90;99.90;;;;;;5080561;28;20395;-81
2021/05/01 12:31:48;;;;;;;11.43;4.67;;;15.90;99.90;;;;;;5083572;28;20404;-80
2021/05/01 12:34:15;;;;;;;16.27;6.57;;;15.90;99.90;;;;;;5086468;28;20377;-81
2021/05/01 12:36:45;;;;;;;48.85;38.53;;;15.90;99.90;;;;;;5085302;28;20434;-80
2021/05/01 12:39:13;;;;;;;21.15;15.70;;;15.90;99.90;;;;;;5087434;28;20384;-80
2021/05/01 12:41:43;;;;;;;21.70;15.20;;;15.90;99.90;;;;;;5086757;28;20737;-80
2021/05/01 12:44:40;;;;;;;20.52;13.15;;;15.90;99.90;;;;;;5086724;28;20384;-80
2021/05/01 12:47:07;;;;;;;14.90;7.70;;;15.90;99.90;;;;;;5087752;28;20400;-80
2021/05/01 12:49:35;;;;;;;14.45;6.45;;;15.90;99.90;;;;;;5087852;28;20416;-80
2021/05/01 12:52:21;;;;;;;9.13;4.53;;;15.80;99.90;;;;;;5087139;28;20404;-80
2021/05/01 12:54:57;;;;;;;10.50;4.10;;;15.80;99.90;;;;;;5088176;28;20491;-80
2021/05/01 12:57:32;;;;;;;9.48;3.30;;;15.80;99.90;;;;;;5082507;28;20392;-80
2021/05/01 13:00:19;;;;;;;14.13;4.38;;;15.80;99.90;;;;;;5085162;28;20392;-80
2021/05/01 13:03:05;;;;;;;11.23;3.55;;;15.90;99.90;;;;;;5087447;28;20389;-80
2021/05/01 13:05:34;;;;;;;8.75;3.03;;;15.80;99.90;;;;;;5085432;28;20412;-80